Time;durP1;ratioP1;P1;durP2;ratioP2;P2;SDS_P1;SDS_P2;PMS_P1;PMS_P2;Temp;Humidity;BMP_temperature;BMP_pressure;BME280_temperature;BME280_humidity;BME280_pressure;Samples;Min_cycle;Max_cycle;Signal;HPM_P1;HPM_P2
2022/10/17 00:00:31;;;;;;;21.30;11.52;;;;;;;;;;4924293;29;20044;-78
2022/10/17 00:02:58;;;;;;;24.05;12.05;;;;;;;;;;4925887;29;20052;-77
2022/10/17 00:05:26;;;;;;;21.30;12.25;;;;;;;;;;4926229;29;20036;-78
2022/10/17 00:07:54;;;;;;;24.30;12.18;;;;;;;;;;4925161;29;20048;-79
2022/10/17 00:10:21;;;;;;;19.33;12.15;;;;;;;;;;4925839;29;20052;-78
2022/10/17 00:12:50;;;;;;;24.58;12.65;;;;;;;;;;4924184;29;20072;-77
2022/10/17 00:15:19;;;;;;;19.70;12.00;;;;;;;;;;4923500;29;20127;-79
2022/10/17 00:17:46;;;;;;;23.00;12.88;;;;;;;;;;4923066;29;20044;-77
2022/10/17 00:20:14;;;;;;;23.23;12.70;;;;;;;;;;4923420;29;20118;-77
2022/10/17 00:22:42;;;;;;;23.52;12.18;;;;;;;;;;4922539;29;20044;-76
2022/10/17 00:25:10;;;;;;;27.05;13.02;;;;;;;;;;4922856;29;20046;-77
2022/10/17 00:27:38;;;;;;;26.45;12.45;;;;;;;;;;4922594;29;20070;-77
2022/10/17 00:30:07;;;;;;;22.23;12.52;;;;;;;;;;4920619;29;20048;-77
2022/10/17 00:32:35;;;;;;;22.95;12.55;;;;;;;;;;4921087;29;20076;-77
2022/10/17 00:35:02;;;;;;;22.38;12.80;;;;;;;;;;4921827;29;20072;-78
2022/10/17 00:37:30;;;;;;;20.27;12.80;;;;;;;;;;4922662;29;20056;-77
2022/10/17 00:39:58;;;;;;;23.02;12.20;;;;;;;;;;4922258;29;20059;-78
2022/10/17 00:42:26;;;;;;;26.95;13.57;;;;;;;;;;4921189;29;20044;-77
2022/10/17 00:44:57;;;;;;;23.52;12.95;;;;;;;;;;4920844;29;20059;-78
2022/10/17 00:47:25;;;;;;;19.45;12.82;;;;;;;;;;4954820;29;20040;-77
2022/10/17 00:49:52;;;;;;;22.27;14.20;;;;;;;;;;4924245;29;20044;-76
2022/10/17 00:52:25;;;;;;;23.88;13.90;;;;;;;;;;4922705;29;20129;-75
2022/10/17 00:54:58;;;;;;;21.27;13.52;;;;;;;;;;4922424;29;20116;-77
2022/10/17 00:57:26;;;;;;;20.20;13.48;;;;;;;;;;4922203;29;20477;-76
2022/10/17 00:59:55;;;;;;;19.92;14.18;;;;;;;;;;4919765;29;20095;-77
2022/10/17 01:02:23;;;;;;;21.90;13.52;;;;;;;;;;4952607;29;20055;-76
2022/10/17 01:04:53;;;;;;;21.85;14.40;;;;;;;;;;4923268;29;20119;-76
2022/10/17 01:07:21;;;;;;;21.95;14.18;;;;;;;;;;4919021;29;20052;-77
2022/10/17 01:09:49;;;;;;;24.50;14.60;;;;;;;;;;4919232;29;20050;-78
2022/10/17 01:12:20;;;;;;;22.50;14.95;;;;;;;;;;4918998;29;20524;-77
2022/10/17 01:15:06;;;;;;;27.13;15.23;;;;;;;;;;4919224;29;20058;-78
2022/10/17 01:17:55;;;;;;;26.13;15.68;;;;;;;;;;4919189;29;20487;-77
2022/10/17 01:20:31;;;;;;;21.30;15.07;;;;;;;;;;4917931;29;20055;-76
2022/10/17 01:23:19;;;;;;;28.70;16.05;;;;;;;;;;4916920;29;20055;-78
2022/10/17 01:26:02;;;;;;;28.00;16.10;;;;;;;;;;4910719;29;20074;-78
2022/10/17 01:28:49;;;;;;;25.02;15.88;;;;;;;;;;4901077;29;20048;-77
2022/10/17 01:31:20;;;;;;;25.92;15.98;;;;;;;;;;4916502;29;20048;-77
2022/10/17 01:33:47;;;;;;;32.10;17.80;;;;;;;;;;4916490;29;20048;-78
2022/10/17 01:36:22;;;;;;;28.35;17.00;;;;;;;;;;4916398;29;20073;-77
2022/10/17 01:38:56;;;;;;;25.75;16.40;;;;;;;;;;4948181;29;20048;-77
2022/10/17 01:41:26;;;;;;;29.65;18.15;;;;;;;;;;4916753;29;20044;-77
2022/10/17 01:43:57;;;;;;;27.08;17.65;;;;;;;;;;4917615;29;20046;-76
2022/10/17 01:46:29;;;;;;;26.55;17.77;;;;;;;;;;4916350;29;20059;-76
2022/10/17 01:49:00;;;;;;;32.25;18.23;;;;;;;;;;4916037;29;20774;-77
2022/10/17 01:51:33;;;;;;;29.25;17.88;;;;;;;;;;4947969;29;20135;-77
2022/10/17 01:54:04;;;;;;;28.65;17.45;;;;;;;;;;4917627;29;20063;-76
2022/10/17 01:56:32;;;;;;;30.40;17.60;;;;;;;;;;4916160;29;20044;-76
2022/10/17 01:59:02;;;;;;;32.75;18.30;;;;;;;;;;4916249;29;20047;-76
2022/10/17 02:01:31;;;;;;;29.20;17.27;;;;;;;;;;4915854;29;20048;-76
2022/10/17 02:04:00;;;;;;;26.67;17.80;;;;;;;;;;4917462;29;20545;-77
2022/10/17 02:06:28;;;;;;;28.80;18.23;;;;;;;;;;4935332;29;20053;-76
2022/10/17 02:08:56;;;;;;;27.00;18.33;;;;;;;;;;4921270;29;20117;-77
2022/10/17 02:11:24;;;;;;;29.50;18.08;;;;;;;;;;4928629;29;20062;-75
2022/10/17 02:14:05;;;;;;;29.25;17.48;;;;;;;;;;4921020;29;20055;-76
2022/10/17 02:16:35;;;;;;;25.30;17.67;;;;;;;;;;4917239;29;20402;-76
2022/10/17 02:19:21;;;;;;;31.50;18.30;;;;;;;;;;4947580;29;20529;-77
2022/10/17 02:21:53;;;;;;;26.10;17.13;;;;;;;;;;4915661;29;20048;-76
2022/10/17 02:24:28;;;;;;;25.50;17.50;;;;;;;;;;4916917;29;20037;-76
2022/10/17 02:26:59;;;;;;;31.92;17.83;;;;;;;;;;4916673;29;20056;-78
2022/10/17 02:29:28;;;;;;;26.10;16.63;;;;;;;;;;4915529;29;20103;-77
2022/10/17 02:32:08;;;;;;;24.83;17.50;;;;;;;;;;4947232;29;20083;-76
2022/10/17 02:34:38;;;;;;;28.25;17.20;;;;;;;;;;4915493;29;20048;-76
2022/10/17 02:37:06;;;;;;;27.40;17.60;;;;;;;;;;4916839;29;20397;-77
2022/10/17 02:39:35;;;;;;;27.55;17.73;;;;;;;;;;4915572;29;20052;-76
2022/10/17 02:42:04;;;;;;;27.42;17.58;;;;;;;;;;4915269;29;20095;-76
2022/10/17 02:44:33;;;;;;;29.10;17.30;;;;;;;;;;4947177;29;20487;-75
2022/10/17 02:47:07;;;;;;;30.77;18.08;;;;;;;;;;4915420;29;20059;-77
2022/10/17 02:49:38;;;;;;;27.55;16.95;;;;;;;;;;4915440;29;20054;-75
2022/10/17 02:52:10;;;;;;;26.48;17.40;;;;;;;;;;4915166;29;20078;-76
2022/10/17 02:54:44;;;;;;;32.17;18.00;;;;;;;;;;4915460;29;20139;-75
2022/10/17 02:57:30;;;;;;;26.73;17.65;;;;;;;;;;4947073;29;20086;-77
2022/10/17 02:59:59;;;;;;;27.42;17.13;;;;;;;;;;4915311;29;20076;-76
2022/10/17 03:02:26;;;;;;;26.60;17.75;;;;;;;;;;4918679;29;20044;-75
2022/10/17 03:04:55;;;;;;;27.38;17.63;;;;;;;;;;4919278;29;20461;-76
2022/10/17 03:07:23;;;;;;;25.42;17.20;;;;;;;;;;4919224;29;20040;-76
2022/10/17 03:09:50;;;;;;;33.60;17.65;;;;;;;;;;4951119;29;21017;-76
2022/10/17 03:12:17;;;;;;;26.48;17.00;;;;;;;;;;4918818;29;20052;-77
2022/10/17 03:14:45;;;;;;;28.45;16.55;;;;;;;;;;4919246;29;20040;-76
2022/10/17 03:17:12;;;;;;;24.98;16.58;;;;;;;;;;4920384;29;20044;-77
2022/10/17 03:19:40;;;;;;;27.48;16.85;;;;;;;;;;4934807;29;20476;-76
2022/10/17 03:22:08;;;;;;;31.85;17.35;;;;;;;;;;4903542;29;20538;-77
2022/10/17 03:24:37;;;;;;;27.38;17.30;;;;;;;;;;4918860;29;20503;-76
2022/10/17 03:27:04;;;;;;;30.98;17.52;;;;;;;;;;4918581;29;20056;-77
2022/10/17 03:29:31;;;;;;;28.38;17.05;;;;;;;;;;4918380;29;20036;-77
2022/10/17 03:31:59;;;;;;;28.25;17.92;;;;;;;;;;4903274;29;20050;-77
2022/10/17 03:34:27;;;;;;;28.05;17.77;;;;;;;;;;4918551;29;20040;-77
2022/10/17 03:36:54;;;;;;;27.85;17.60;;;;;;;;;;4950074;29;20415;-79
2022/10/17 03:39:23;;;;;;;28.90;17.77;;;;;;;;;;4918193;29;20131;-78
2022/10/17 03:41:51;;;;;;;28.25;17.33;;;;;;;;;;4918213;29;20148;-77
2022/10/17 03:44:19;;;;;;;28.05;17.20;;;;;;;;;;4917907;29;20052;-77
2022/10/17 03:46:48;;;;;;;28.95;17.30;;;;;;;;;;4919323;29;20051;-78
2022/10/17 03:49:15;;;;;;;28.65;17.67;;;;;;;;;;4919667;29;20099;-78
2022/10/17 03:51:43;;;;;;;34.65;16.75;;;;;;;;;;4918551;29;20088;-79
2022/10/17 03:54:13;;;;;;;33.80;17.38;;;;;;;;;;4950398;29;20051;-78
2022/10/17 03:56:42;;;;;;;27.10;17.30;;;;;;;;;;4918723;29;20502;-77
2022/10/17 03:59:13;;;;;;;28.70;17.08;;;;;;;;;;4934094;29;20380;-78
2022/10/17 04:01:44;;;;;;;24.98;17.02;;;;;;;;;;4950347;29;20463;-77
2022/10/17 04:04:12;;;;;;;24.58;16.55;;;;;;;;;;4917491;29;20040;-78
2022/10/17 04:06:40;;;;;;;27.63;16.95;;;;;;;;;;4932308;29;20044;-76
2022/10/17 04:09:08;;;;;;;28.33;17.17;;;;;;;;;;4916251;29;20048;-75
2022/10/17 04:11:49;;;;;;;32.35;16.98;;;;;;;;;;4916090;29;20048;-75
2022/10/17 04:14:16;;;;;;;29.13;16.90;;;;;;;;;;4916920;29;20487;-76
2022/10/17 04:16:44;;;;;;;26.27;17.05;;;;;;;;;;4917314;29;20052;-76
2022/10/17 04:19:16;;;;;;;28.92;17.02;;;;;;;;;;4949293;29;20052;-78
2022/10/17 04:21:46;;;;;;;26.80;16.83;;;;;;;;;;4917674;29;20056;-75
2022/10/17 04:24:14;;;;;;;24.02;17.23;;;;;;;;;;4949716;29;20608;-76
2022/10/17 04:26:50;;;;;;;28.00;17.33;;;;;;;;;;4917826;29;20401;-76
2022/10/17 04:29:19;;;;;;;26.30;17.33;;;;;;;;;;4951418;29;20048;-75
2022/10/17 04:31:51;;;;;;;31.08;17.85;;;;;;;;;;4917153;29;20056;-75
2022/10/17 04:34:23;;;;;;;32.90;17.70;;;;;;;;;;4949383;29;20452;-75
2022/10/17 04:36:51;;;;;;;31.25;18.02;;;;;;;;;;4917414;29;20044;-76
2022/10/17 04:39:19;;;;;;;26.45;16.60;;;;;;;;;;4917446;29;20040;-76
2022/10/17 04:41:47;;;;;;;31.63;17.17;;;;;;;;;;4917359;29;20052;-76
2022/10/17 04:44:15;;;;;;;32.85;17.63;;;;;;;;;;4917536;29;20048;-76
2022/10/17 04:46:48;;;;;;;26.88;17.17;;;;;;;;;;4949247;29;20052;-76
2022/10/17 04:49:16;;;;;;;26.52;16.95;;;;;;;;;;4918623;29;20399;-75
2022/10/17 04:51:47;;;;;;;28.45;16.33;;;;;;;;;;4917214;29;20051;-76
2022/10/17 04:54:28;;;;;;;26.42;16.95;;;;;;;;;;4917229;29;20052;-75
2022/10/17 04:57:03;;;;;;;28.58;16.85;;;;;;;;;;4949256;29;20510;-77
2022/10/17 04:59:31;;;;;;;26.80;17.02;;;;;;;;;;4948937;29;20048;-76
2022/10/17 05:02:22;;;;;;;31.17;17.30;;;;;;;;;;4918180;29;20103;-76
2022/10/17 05:04:50;;;;;;;31.63;17.10;;;;;;;;;;4917018;29;20396;-76
2022/10/17 05:07:18;;;;;;;29.85;16.48;;;;;;;;;;4916961;29;20541;-76
2022/10/17 05:10:10;;;;;;;35.45;18.25;;;;;;;;;;4949067;29;20091;-76
2022/10/17 05:12:40;;;;;;;37.00;19.00;;;;;;;;;;4948977;29;20459;-76
2022/10/17 05:15:08;;;;;;;32.63;17.55;;;;;;;;;;4917202;29;20454;-76
2022/10/17 05:17:35;;;;;;;26.30;18.13;;;;;;;;;;4918216;29;20494;-76
2022/10/17 05:20:03;;;;;;;27.92;16.20;;;;;;;;;;4901276;29;20068;-76
2022/10/17 05:22:32;;;;;;;27.27;16.77;;;;;;;;;;4916693;29;20135;-76
2022/10/17 05:25:06;;;;;;;35.70;17.73;;;;;;;;;;4916009;29;20526;-76
2022/10/17 05:27:33;;;;;;;28.85;17.63;;;;;;;;;;4932474;29;20135;-76
2022/10/17 05:30:01;;;;;;;38.17;18.17;;;;;;;;;;4916548;29;20068;-77
2022/10/17 05:32:33;;;;;;;29.83;17.13;;;;;;;;;;4916568;29;20051;-75
2022/10/17 05:35:02;;;;;;;30.33;17.38;;;;;;;;;;4916420;29;20067;-77
2022/10/17 05:37:31;;;;;;;27.15;17.00;;;;;;;;;;4916473;29;20406;-76
2022/10/17 05:40:00;;;;;;;28.25;18.27;;;;;;;;;;4916453;29;20048;-76
2022/10/17 05:42:29;;;;;;;30.85;17.80;;;;;;;;;;4916280;29;20402;-76
2022/10/17 05:44:57;;;;;;;28.45;17.05;;;;;;;;;;4916357;29;20048;-76
2022/10/17 05:47:26;;;;;;;33.97;17.75;;;;;;;;;;4916286;29;20059;-75
2022/10/17 05:49:54;;;;;;;27.67;17.90;;;;;;;;;;4916309;29;20072;-76
2022/10/17 05:52:31;;;;;;;30.33;18.50;;;;;;;;;;4947912;29;20055;-77
2022/10/17 05:55:11;;;;;;;35.03;19.40;;;;;;;;;;4916190;29;20062;-77
2022/10/17 05:57:39;;;;;;;27.80;17.17;;;;;;;;;;4916150;29;20414;-77
2022/10/17 06:00:12;;;;;;;33.55;18.70;;;;;;;;;;4916175;29;20557;-76
2022/10/17 06:02:44;;;;;;;26.02;16.92;;;;;;;;;;4947770;29;20076;-77
2022/10/17 06:05:15;;;;;;;26.30;17.48;;;;;;;;;;4916133;29;20055;-77
2022/10/17 06:07:43;;;;;;;27.90;16.90;;;;;;;;;;4915943;29;20112;-76
2022/10/17 06:10:14;;;;;;;26.02;16.70;;;;;;;;;;4916135;29;20119;-77
2022/10/17 06:12:45;;;;;;;23.23;15.60;;;;;;;;;;4915868;29;20056;-76
2022/10/17 06:15:14;;;;;;;27.38;15.88;;;;;;;;;;4947746;29;20048;-77
2022/10/17 06:17:46;;;;;;;23.75;15.80;;;;;;;;;;4916164;29;20048;-77
2022/10/17 06:20:13;;;;;;;23.27;15.77;;;;;;;;;;4916157;29;20410;-77
2022/10/17 06:22:42;;;;;;;25.52;16.17;;;;;;;;;;4915869;29;20048;-77
2022/10/17 06:25:15;;;;;;;24.08;16.10;;;;;;;;;;4899922;29;20131;-77
2022/10/17 06:27:42;;;;;;;23.67;14.75;;;;;;;;;;4947221;29;20084;-77
2022/10/17 06:30:11;;;;;;;20.20;14.30;;;;;;;;;;4915534;29;20506;-78
2022/10/17 06:32:38;;;;;;;21.02;15.13;;;;;;;;;;4915404;29;20051;-78
2022/10/17 06:35:06;;;;;;;19.95;15.73;;;;;;;;;;4915411;29;20040;-79
2022/10/17 06:37:36;;;;;;;19.63;14.95;;;;;;;;;;4947275;29;20054;-77
2022/10/17 06:40:09;;;;;;;17.80;14.15;;;;;;;;;;4915629;29;20149;-79
2022/10/17 06:42:38;;;;;;;20.55;13.88;;;;;;;;;;4915766;29;20062;-80
2022/10/17 06:45:46;;;;;;;16.52;13.48;;;;;;;;;;4840355;29;20141;-79
2022/10/17 06:48:25;;;;;;;19.50;13.75;;;;;;;;;;4824970;29;20128;-79
2022/10/17 06:51:11;;;;;;;21.35;14.00;;;;;;;;;;4891541;29;20120;-79
2022/10/17 06:53:47;;;;;;;18.35;13.13;;;;;;;;;;4947235;29;20443;-77
2022/10/17 06:56:47;;;;;;;20.15;14.02;;;;;;;;;;4909836;29;20067;-78
2022/10/17 06:59:49;;;;;;;26.27;15.07;;;;;;;;;;4908629;29;20056;-78
2022/10/17 07:02:23;;;;;;;20.98;14.15;;;;;;;;;;4915386;29;20511;-77
2022/10/17 07:04:52;;;;;;;20.33;14.02;;;;;;;;;;4947269;29;20048;-77
2022/10/17 07:07:19;;;;;;;20.25;13.95;;;;;;;;;;4915655;29;20499;-79
2022/10/17 07:09:46;;;;;;;22.63;14.38;;;;;;;;;;4931769;29;20052;-78
2022/10/17 07:12:16;;;;;;;24.92;14.27;;;;;;;;;;4915546;29;20499;-77
2022/10/17 07:14:46;;;;;;;21.20;13.23;;;;;;;;;;4947442;29;20570;-76
2022/10/17 07:17:17;;;;;;;26.58;13.50;;;;;;;;;;4947447;29;20067;-77
2022/10/17 07:19:45;;;;;;;26.02;14.60;;;;;;;;;;4947306;29;20407;-77
2022/10/17 07:22:13;;;;;;;23.60;14.27;;;;;;;;;;4915556;29;20047;-77
2022/10/17 07:24:44;;;;;;;29.30;15.23;;;;;;;;;;4946989;29;20079;-77
2022/10/17 07:27:19;;;;;;;22.75;13.63;;;;;;;;;;4915144;29;20052;-77
2022/10/17 07:29:47;;;;;;;27.05;13.70;;;;;;;;;;4915480;29;20115;-77
2022/10/17 07:32:20;;;;;;;31.13;16.35;;;;;;;;;;4915324;29;20158;-77
2022/10/17 07:34:48;;;;;;;28.23;14.68;;;;;;;;;;4947148;29;20047;-77
2022/10/17 07:37:15;;;;;;;31.10;13.35;;;;;;;;;;4915318;29;20040;-78
2022/10/17 07:39:49;;;;;;;18.00;11.43;;;;;;;;;;4947255;29;20052;-78
2022/10/17 07:42:16;;;;;;;19.15;11.82;;;;;;;;;;4947194;29;20570;-77
2022/10/17 07:44:46;;;;;;;19.23;12.40;;;;;;;;;;4915529;29;20048;-78
2022/10/17 07:47:17;;;;;;;18.17;11.10;;;;;;;;;;4948844;28;20091;-77
2022/10/17 07:49:47;;;;;;;22.15;10.88;;;;;;;;;;4950928;29;20075;-77
2022/10/17 07:52:15;;;;;;;18.52;11.30;;;;;;;;;;4920219;29;20059;-77
2022/10/17 07:54:43;;;;;;;16.95;10.57;;;;;;;;;;4920118;29;20108;-77
2022/10/17 07:57:10;;;;;;;18.17;10.07;;;;;;;;;;4919798;29;20063;-78
2022/10/17 07:59:38;;;;;;;21.65;11.63;;;;;;;;;;4919776;29;20447;-77
2022/10/17 08:02:06;;;;;;;27.75;13.88;;;;;;;;;;4919712;29;20384;-77
2022/10/17 08:04:35;;;;;;;21.67;12.15;;;;;;;;;;4919506;29;20067;-77
2022/10/17 08:07:02;;;;;;;22.73;11.52;;;;;;;;;;4919977;29;20048;-78
2022/10/17 08:09:47;;;;;;;14.38;10.27;;;;;;;;;;4919837;29;20477;-77
2022/10/17 08:12:15;;;;;;;18.42;11.73;;;;;;;;;;4919504;29;20491;-77
2022/10/17 08:14:42;;;;;;;17.52;11.20;;;;;;;;;;4919409;29;20103;-77
2022/10/17 08:17:10;;;;;;;20.23;11.10;;;;;;;;;;4919544;29;20099;-78
2022/10/17 08:19:39;;;;;;;17.10;10.25;;;;;;;;;;4919458;29;20055;-77
2022/10/17 08:22:06;;;;;;;21.77;10.85;;;;;;;;;;4919887;29;20044;-78
2022/10/17 08:24:34;;;;;;;21.20;10.07;;;;;;;;;;4919447;29;20078;-78
2022/10/17 08:27:02;;;;;;;18.42;10.55;;;;;;;;;;4919584;29;20123;-77
2022/10/17 08:29:31;;;;;;;16.67;9.65;;;;;;;;;;4919200;29;20390;-77
2022/10/17 08:31:59;;;;;;;33.28;18.33;;;;;;;;;;4919155;29;20141;-77
2022/10/17 08:34:29;;;;;;;18.95;10.68;;;;;;;;;;4919150;29;20487;-77
2022/10/17 08:36:56;;;;;;;17.38;11.30;;;;;;;;;;4919446;29;20047;-78
2022/10/17 08:39:24;;;;;;;22.35;12.02;;;;;;;;;;4949649;29;20052;-78
2022/10/17 08:42:00;;;;;;;14.50;8.63;;;;;;;;;;4919136;29;20044;-78
2022/10/17 08:44:34;;;;;;;13.88;7.85;;;;;;;;;;4919196;29;20516;-78
2022/10/17 08:47:03;;;;;;;22.13;10.50;;;;;;;;;;4919328;29;20048;-78
2022/10/17 08:49:39;;;;;;;14.57;8.07;;;;;;;;;;4919207;29;20119;-77
2022/10/17 08:52:29;;;;;;;11.75;6.60;;;;;;;;;;4918589;29;20502;-78
2022/10/17 08:54:58;;;;;;;11.30;6.70;;;;;;;;;;4913889;29;20084;-76
2022/10/17 08:57:27;;;;;;;17.08;8.82;;;;;;;;;;4917749;29;20131;-76
2022/10/17 08:59:56;;;;;;;10.68;7.10;;;;;;;;;;4917722;29;20043;-76
2022/10/17 09:02:41;;;;;;;14.88;7.20;;;;;;;;;;4918663;29;20115;-76
2022/10/17 09:05:25;;;;;;;11.48;7.18;;;;;;;;;;4918711;29;20099;-77
2022/10/17 09:07:59;;;;;;;15.95;6.38;;;;;;;;;;4918359;29;20078;-77
2022/10/17 09:10:32;;;;;;;13.27;5.97;;;;;;;;;;4918216;29;20422;-76
2022/10/17 09:13:00;;;;;;;13.10;6.93;;;;;;;;;;4918052;29;20398;-77
2022/10/17 09:15:52;;;;;;;13.77;5.97;;;;;;;;;;4918126;29;20044;-76
2022/10/17 09:18:31;;;;;;;11.98;5.20;;;;;;;;;;4918039;29;20569;-77
2022/10/17 09:21:22;;;;;;;13.70;5.97;;;;;;;;;;4918006;29;20452;-78
2022/10/17 09:23:58;;;;;;;10.88;5.15;;;;;;;;;;4917866;29;20072;-77
2022/10/17 09:26:36;;;;;;;11.00;5.50;;;;;;;;;;4916809;29;20051;-77
2022/10/17 09:29:11;;;;;;;6.75;4.30;;;;;;;;;;4917709;29;20048;-77
2022/10/17 09:31:47;;;;;;;11.85;4.72;;;;;;;;;;4918059;29;20063;-77
2022/10/17 09:34:16;;;;;;;8.57;4.50;;;;;;;;;;4917751;29;20048;-77
2022/10/17 09:36:43;;;;;;;9.45;4.68;;;;;;;;;;4917838;29;20447;-77
2022/10/17 09:39:11;;;;;;;8.32;4.50;;;;;;;;;;4917808;29;20046;-77
2022/10/17 09:41:46;;;;;;;10.27;4.35;;;;;;;;;;4918067;29;20052;-76
2022/10/17 09:44:14;;;;;;;6.47;4.03;;;;;;;;;;4917665;29;20091;-77
2022/10/17 09:46:43;;;;;;;8.55;4.72;;;;;;;;;;4917359;29;20048;-78
2022/10/17 09:49:14;;;;;;;8.77;4.25;;;;;;;;;;4917590;29;20376;-77
2022/10/17 09:51:43;;;;;;;7.57;4.47;;;;;;;;;;4917532;29;20040;-78
2022/10/17 09:54:20;;;;;;;7.35;4.22;;;;;;;;;;4917263;29;20052;-79
2022/10/17 09:57:01;;;;;;;6.68;4.25;;;;;;;;;;4917334;29;20040;-77
2022/10/17 09:59:31;;;;;;;9.23;4.25;;;;;;;;;;4917218;29;20048;-76
2022/10/17 10:02:14;;;;;;;7.72;4.05;;;;;;;;;;4915997;29;20055;-78
2022/10/17 10:05:00;;;;;;;6.85;4.00;;;;;;;;;;4917335;29;20048;-79
2022/10/17 10:07:33;;;;;;;8.10;3.83;;;;;;;;;;4917533;29;20052;-78
2022/10/17 10:10:02;;;;;;;8.65;4.18;;;;;;;;;;4916649;29;20037;-76
2022/10/17 10:12:31;;;;;;;7.80;4.47;;;;;;;;;;4917163;29;20036;-77
2022/10/17 10:14:59;;;;;;;14.63;4.93;;;;;;;;;;4916901;29;20470;-77
2022/10/17 10:17:40;;;;;;;7.75;4.78;;;;;;;;;;4915825;29;20048;-78
2022/10/17 10:20:26;;;;;;;13.88;6.75;;;;;;;;;;4916902;29;20051;-77
2022/10/17 10:23:14;;;;;;;6.55;3.63;;;;;;;;;;4917123;29;20048;-77
2022/10/17 10:26:08;;;;;;;9.00;5.45;;;;;;;;;;4916863;29;20059;-78
2022/10/17 10:28:40;;;;;;;8.15;4.78;;;;;;;;;;4902689;29;20134;-78
2022/10/17 10:31:09;;;;;;;10.38;5.55;;;;;;;;;;4915513;29;20261;-77
2022/10/17 10:33:40;;;;;;;6.93;3.95;;;;;;;;;;4916582;29;20099;-76
2022/10/17 10:36:08;;;;;;;6.03;3.70;;;;;;;;;;4916619;29;20048;-77
2022/10/17 10:38:38;;;;;;;9.63;4.20;;;;;;;;;;4916512;29;20068;-78
2022/10/17 10:41:07;;;;;;;8.73;4.72;;;;;;;;;;4916514;29;20040;-78
2022/10/17 10:43:36;;;;;;;10.73;4.85;;;;;;;;;;4916721;29;20051;-78
2022/10/17 10:46:05;;;;;;;9.35;4.90;;;;;;;;;;4916676;29;20507;-79
2022/10/17 10:48:36;;;;;;;10.95;4.55;;;;;;;;;;4915474;29;20048;-78
2022/10/17 10:51:15;;;;;;;9.85;4.30;;;;;;;;;;4917228;29;20056;-78
2022/10/17 10:53:42;;;;;;;10.23;4.50;;;;;;;;;;4916471;29;20036;-77
2022/10/17 10:56:18;;;;;;;10.63;4.78;;;;;;;;;;4916465;29;20100;-78
2022/10/17 10:58:49;;;;;;;10.50;4.53;;;;;;;;;;4916424;29;20494;-78
2022/10/17 11:01:20;;;;;;;8.35;4.80;;;;;;;;;;4916494;29;20495;-78
2022/10/17 11:04:12;;;;;;;8.18;4.28;;;;;;;;;;4916562;29;20048;-77
2022/10/17 11:06:41;;;;;;;8.35;4.50;;;;;;;;;;4916449;29;20048;-77
2022/10/17 11:09:24;;;;;;;6.03;4.50;;;;;;;;;;4946433;29;20052;-77
2022/10/17 11:12:10;;;;;;;10.32;4.57;;;;;;;;;;4916519;29;20044;-77
2022/10/17 11:14:38;;;;;;;9.93;5.55;;;;;;;;;;4914992;29;20044;-77
2022/10/17 11:17:10;;;;;;;9.45;4.60;;;;;;;;;;4916075;29;20067;-78
2022/10/17 11:19:44;;;;;;;8.27;4.40;;;;;;;;;;4916219;29;20040;-80
2022/10/17 11:22:15;;;;;;;9.57;5.15;;;;;;;;;;4916268;29;20055;-78
2022/10/17 11:24:48;;;;;;;9.75;5.13;;;;;;;;;;4920030;29;20078;-78
2022/10/17 11:27:15;;;;;;;11.68;4.30;;;;;;;;;;4919743;29;20044;-77
2022/10/17 11:29:44;;;;;;;10.48;6.38;;;;;;;;;;4919944;29;20487;-77
2022/10/17 11:32:19;;;;;;;8.05;5.20;;;;;;;;;;4919849;29;20143;-78
2022/10/17 11:34:49;;;;;;;12.25;7.45;;;;;;;;;;4919865;29;20044;-77
2022/10/17 11:37:26;;;;;;;8.63;4.30;;;;;;;;;;4919810;29;20044;-77
2022/10/17 11:39:56;;;;;;;8.45;4.63;;;;;;;;;;4919908;29;20059;-77
2022/10/17 11:42:26;;;;;;;9.75;5.00;;;;;;;;;;4919729;29;20040;-78
2022/10/17 11:44:57;;;;;;;9.23;4.60;;;;;;;;;;4919787;29;20499;-78
2022/10/17 11:47:24;;;;;;;8.02;4.13;;;;;;;;;;4919684;29;20131;-78
2022/10/17 11:49:55;;;;;;;8.18;4.35;;;;;;;;;;4919698;29;20048;-77
2022/10/17 11:52:43;;;;;;;8.02;4.13;;;;;;;;;;4919788;29;20072;-78
2022/10/17 11:55:27;;;;;;;8.10;4.22;;;;;;;;;;4919581;29;20139;-82
2022/10/17 11:57:57;;;;;;;10.82;4.15;;;;;;;;;;4918522;29;20075;-82
2022/10/17 12:00:30;;;;;;;9.60;4.57;;;;;;;;;;4919573;29;20076;-81
2022/10/17 12:03:13;;;;;;;7.50;4.28;;;;;;;;;;4919430;29;20076;-82
2022/10/17 12:05:47;;;;;;;9.98;5.00;;;;;;;;;;4919370;29;20071;-81
2022/10/17 12:08:17;;;;;;;8.30;4.85;;;;;;;;;;4919216;29;20044;-82
2022/10/17 12:11:06;;;;;;;12.90;5.82;;;;;;;;;;4919308;29;20554;-82
2022/10/17 12:13:34;;;;;;;9.55;6.22;;;;;;;;;;4919178;29;20048;-86
2022/10/17 12:16:20;;;;;;;8.48;5.47;;;;;;;;;;4919160;29;20076;-83
2022/10/17 12:18:52;;;;;;;9.38;5.30;;;;;;;;;;4919230;29;20044;-84
2022/10/17 12:21:19;;;;;;;10.93;4.55;;;;;;;;;;4917580;29;20056;-82
2022/10/17 12:23:54;;;;;;;7.55;3.95;;;;;;;;;;4918900;29;20076;-82
2022/10/17 12:26:28;;;;;;;8.95;4.57;;;;;;;;;;4918923;29;20063;-82
2022/10/17 12:28:56;;;;;;;7.00;3.88;;;;;;;;;;4917572;29;20497;-84
2022/10/17 12:31:25;;;;;;;7.75;4.03;;;;;;;;;;4918721;29;20048;-83
2022/10/17 12:34:01;;;;;;;13.05;4.47;;;;;;;;;;4918436;29;20048;-83
2022/10/17 12:36:28;;;;;;;9.18;4.30;;;;;;;;;;4918843;29;20506;-83
2022/10/17 12:39:01;;;;;;;8.63;3.83;;;;;;;;;;4918717;29;20513;-83
2022/10/17 12:41:38;;;;;;;7.97;3.90;;;;;;;;;;4918734;29;20040;-83
2022/10/17 12:44:12;;;;;;;7.13;4.10;;;;;;;;;;4918637;29;20056;-82
2022/10/17 12:46:43;;;;;;;5.57;4.10;;;;;;;;;;4918592;29;20036;-82
2022/10/17 12:49:20;;;;;;;6.95;3.72;;;;;;;;;;4918612;29;20599;-82
2022/10/17 12:52:06;;;;;;;6.15;3.72;;;;;;;;;;4918407;29;20046;-83
2022/10/17 12:54:38;;;;;;;11.15;4.30;;;;;;;;;;4917230;29;20127;-81
2022/10/17 12:57:22;;;;;;;8.05;4.53;;;;;;;;;;4946716;29;20071;-81
2022/10/17 12:59:50;;;;;;;6.13;3.75;;;;;;;;;;4918457;29;20135;-83
2022/10/17 13:02:21;;;;;;;11.98;4.70;;;;;;;;;;4918353;29;20096;-82
2022/10/17 13:04:50;;;;;;;9.40;4.07;;;;;;;;;;4918680;29;20453;-84
2022/10/17 13:07:20;;;;;;;10.38;4.38;;;;;;;;;;4918483;29;20051;-82
2022/10/17 13:09:47;;;;;;;19.35;9.93;;;;;;;;;;4918151;29;20048;-83
2022/10/17 13:12:19;;;;;;;14.18;5.55;;;;;;;;;;4918091;29;20127;-81
2022/10/17 13:14:47;;;;;;;8.38;5.18;;;;;;;;;;4917960;29;20482;-83
2022/10/17 13:17:26;;;;;;;9.25;4.63;;;;;;;;;;4918198;29;20047;-83
2022/10/17 13:19:54;;;;;;;7.68;4.50;;;;;;;;;;4916643;29;20060;-83
2022/10/17 13:22:23;;;;;;;8.85;4.10;;;;;;;;;;4918143;29;20040;-81
2022/10/17 13:24:51;;;;;;;11.73;4.72;;;;;;;;;;4917609;29;20494;-83
2022/10/17 13:27:29;;;;;;;10.23;4.55;;;;;;;;;;4917442;29;20573;-80
2022/10/17 13:29:57;;;;;;;11.13;5.07;;;;;;;;;;4917060;29;20100;-80
2022/10/17 13:32:25;;;;;;;5.68;3.97;;;;;;;;;;4917100;29;20498;-80
2022/10/17 13:35:10;;;;;;;9.55;4.22;;;;;;;;;;4917602;29;20072;-80
2022/10/17 13:37:39;;;;;;;14.93;4.88;;;;;;;;;;4916670;29;20044;-82
2022/10/17 13:40:07;;;;;;;16.15;6.57;;;;;;;;;;4917656;29;20372;-82
2022/10/17 13:42:56;;;;;;;16.25;8.88;;;;;;;;;;4917603;29;20490;-81
2022/10/17 13:45:30;;;;;;;8.23;4.45;;;;;;;;;;4916132;29;20048;-78
2022/10/17 13:47:59;;;;;;;10.60;6.28;;;;;;;;;;4917653;29;20047;-81
2022/10/17 13:50:27;;;;;;;11.50;4.40;;;;;;;;;;4917391;29;20100;-71
2022/10/17 13:53:16;;;;;;;8.50;4.30;;;;;;;;;;4917382;29;20044;-72
2022/10/17 13:55:58;;;;;;;7.78;5.10;;;;;;;;;;4917257;29;20566;-72
2022/10/17 13:58:47;;;;;;;8.73;3.80;;;;;;;;;;4917434;29;20051;-72
2022/10/17 14:01:15;;;;;;;6.30;3.95;;;;;;;;;;4917320;29;20092;-72
2022/10/17 14:03:43;;;;;;;8.07;4.60;;;;;;;;;;4917190;29;20123;-72
2022/10/17 14:06:26;;;;;;;12.98;5.35;;;;;;;;;;4917066;29;20591;-73
2022/10/17 14:09:17;;;;;;;7.97;4.70;;;;;;;;;;4912729;29;20107;-72
2022/10/17 14:11:56;;;;;;;13.43;5.88;;;;;;;;;;4913341;29;20044;-73
2022/10/17 14:14:25;;;;;;;12.43;4.75;;;;;;;;;;4916176;29;20463;-73
2022/10/17 14:16:52;;;;;;;12.25;5.57;;;;;;;;;;4916697;29;20051;-72
2022/10/17 14:19:23;;;;;;;13.50;5.07;;;;;;;;;;4916772;29;20068;-72
2022/10/17 14:21:53;;;;;;;8.50;4.40;;;;;;;;;;4903572;29;20454;-73
2022/10/17 14:24:20;;;;;;;8.00;5.05;;;;;;;;;;4916552;29;20055;-73
2022/10/17 14:26:58;;;;;;;13.70;6.07;;;;;;;;;;4915184;29;20399;-73
2022/10/17 14:29:26;;;;;;;9.48;4.95;;;;;;;;;;4917476;29;20060;-73
2022/10/17 14:32:01;;;;;;;10.07;5.40;;;;;;;;;;4917612;29;20088;-73
2022/10/17 14:34:31;;;;;;;6.95;4.35;;;;;;;;;;4916469;29;20063;-72
2022/10/17 14:36:58;;;;;;;6.53;4.40;;;;;;;;;;4916316;29;20043;-71
2022/10/17 14:39:27;;;;;;;7.32;4.97;;;;;;;;;;4916793;29;20103;-71
2022/10/17 14:41:54;;;;;;;6.53;4.60;;;;;;;;;;4916266;29;20103;-72
2022/10/17 14:44:26;;;;;;;19.90;7.95;;;;;;;;;;4916165;29;20048;-72
2022/10/17 14:46:58;;;;;;;11.95;4.93;;;;;;;;;;4916250;29;20047;-71
2022/10/17 14:49:27;;;;;;;34.58;24.50;;;;;;;;;;4916063;29;20127;-73
2022/10/17 14:52:13;;;;;;;15.30;5.93;;;;;;;;;;4914965;29;20399;-73
2022/10/17 14:54:46;;;;;;;16.65;9.30;;;;;;;;;;4916070;29;20047;-71